sensor_id;sensor_type;location;lat;lon;timestamp;temperature;humidity
27413;DHT22;14871;52.702;5.230;2023-07-28T00:02:16;20.50;99.90
27413;DHT22;14871;52.702;5.230;2023-07-28T00:04:41;20.60;99.90
27413;DHT22;14871;52.702;5.230;2023-07-28T00:07:07;20.50;99.90
27413;DHT22;14871;52.702;5.230;2023-07-28T00:09:32;20.50;99.90
27413;DHT22;14871;52.702;5.230;2023-07-28T00:11:59;20.50;99.90
27413;DHT22;14871;52.702;5.230;2023-07-28T00:14:25;20.40;99.90
27413;DHT22;14871;52.702;5.230;2023-07-28T00:16:56;20.60;99.90
27413;DHT22;14871;52.702;5.230;2023-07-28T00:19:22;20.60;99.90
27413;DHT22;14871;52.702;5.230;2023-07-28T00:21:48;20.50;99.90
27413;DHT22;14871;52.702;5.230;2023-07-28T00:24:14;20.50;99.90
27413;DHT22;14871;52.702;5.230;2023-07-28T00:26:40;20.60;99.90
27413;DHT22;14871;52.702;5.230;2023-07-28T00:29:05;20.60;99.90
27413;DHT22;14871;52.702;5.230;2023-07-28T00:31:32;20.50;99.90
27413;DHT22;14871;52.702;5.230;2023-07-28T00:33:57;20.50;99.90
27413;DHT22;14871;52.702;5.230;2023-07-28T00:36:23;20.50;99.90
27413;DHT22;14871;52.702;5.230;2023-07-28T00:38:49;20.70;99.90
27413;DHT22;14871;52.702;5.230;2023-07-28T00:41:14;20.50;99.90
27413;DHT22;14871;52.702;5.230;2023-07-28T00:43:40;20.60;99.90
27413;DHT22;14871;52.702;5.230;2023-07-28T00:46:06;20.50;99.90
27413;DHT22;14871;52.702;5.230;2023-07-28T00:48:32;20.40;99.90
27413;DHT22;14871;52.702;5.230;2023-07-28T00:50:58;20.40;99.90
27413;DHT22;14871;52.702;5.230;2023-07-28T00:53:24;20.50;99.90
27413;DHT22;14871;52.702;5.230;2023-07-28T00:55:51;20.50;99.90
27413;DHT22;14871;52.702;5.230;2023-07-28T00:58:16;20.50;99.90
27413;DHT22;14871;52.702;5.230;2023-07-28T01:00:42;20.50;99.90
27413;DHT22;14871;52.702;5.230;2023-07-28T01:03:08;20.40;99.90
27413;DHT22;14871;52.702;5.230;2023-07-28T01:05:54;20.50;99.90
27413;DHT22;14871;52.702;5.230;2023-07-28T01:08:42;20.50;99.90
27413;DHT22;14871;52.702;5.230;2023-07-28T01:11:11;20.60;99.90
27413;DHT22;14871;52.702;5.230;2023-07-28T01:13:37;20.60;99.90
27413;DHT22;14871;52.702;5.230;2023-07-28T01:16:02;20.60;99.90
27413;DHT22;14871;52.702;5.230;2023-07-28T01:18:28;20.60;99.90
27413;DHT22;14871;52.702;5.230;2023-07-28T01:20:56;20.60;99.90
27413;DHT22;14871;52.702;5.230;2023-07-28T01:26:33;20.50;99.90
27413;DHT22;14871;52.702;5.230;2023-07-28T01:29:00;20.60;99.90
27413;DHT22;14871;52.702;5.230;2023-07-28T01:31:26;20.60;99.90
27413;DHT22;14871;52.702;5.230;2023-07-28T01:33:52;20.50;99.90
27413;DHT22;14871;52.702;5.230;2023-07-28T01:36:17;20.50;99.90
27413;DHT22;14871;52.702;5.230;2023-07-28T01:38:43;20.60;99.90
27413;DHT22;14871;52.702;5.230;2023-07-28T01:41:09;20.50;99.90
27413;DHT22;14871;52.702;5.230;2023-07-28T01:43:34;20.60;99.90
27413;DHT22;14871;52.702;5.230;2023-07-28T01:46:00;20.60;99.90
27413;DHT22;14871;52.702;5.230;2023-07-28T01:48:26;20.50;99.90
27413;DHT22;14871;52.702;5.230;2023-07-28T01:50:52;20.50;99.90
27413;DHT22;14871;52.702;5.230;2023-07-28T01:53:17;20.50;99.90
27413;DHT22;14871;52.702;5.230;2023-07-28T01:55:43;20.60;99.90
27413;DHT22;14871;52.702;5.230;2023-07-28T01:58:09;20.60;99.90
27413;DHT22;14871;52.702;5.230;2023-07-28T02:00:35;20.50;99.90
27413;DHT22;14871;52.702;5.230;2023-07-28T02:03:00;20.50;99.90
27413;DHT22;14871;52.702;5.230;2023-07-28T02:05:28;20.50;99.90
27413;DHT22;14871;52.702;5.230;2023-07-28T02:07:54;20.60;99.90
27413;DHT22;14871;52.702;5.230;2023-07-28T02:10:22;20.50;99.90
27413;DHT22;14871;52.702;5.230;2023-07-28T02:12:48;20.50;99.90
27413;DHT22;14871;52.702;5.230;2023-07-28T02:15:14;20.50;99.90
27413;DHT22;14871;52.702;5.230;2023-07-28T02:17:39;20.50;99.90
27413;DHT22;14871;52.702;5.230;2023-07-28T02:20:06;20.50;99.90
27413;DHT22;14871;52.702;5.230;2023-07-28T02:22:32;20.50;99.90
27413;DHT22;14871;52.702;5.230;2023-07-28T02:24:58;20.50;99.90
27413;DHT22;14871;52.702;5.230;2023-07-28T02:27:27;20.50;99.90
27413;DHT22;14871;52.702;5.230;2023-07-28T02:29:53;20.50;99.90
27413;DHT22;14871;52.702;5.230;2023-07-28T02:32:19;20.50;99.90
27413;DHT22;14871;52.702;5.230;2023-07-28T02:34:44;20.50;99.90
27413;DHT22;14871;52.702;5.230;2023-07-28T02:37:10;20.50;99.90
27413;DHT22;14871;52.702;5.230;2023-07-28T02:39:36;20.50;99.90
27413;DHT22;14871;52.702;5.230;2023-07-28T02:42:01;20.50;99.90
27413;DHT22;14871;52.702;5.230;2023-07-28T02:44:27;20.50;99.90
27413;DHT22;14871;52.702;5.230;2023-07-28T02:46:52;20.40;99.90
27413;DHT22;14871;52.702;5.230;2023-07-28T02:49:18;20.40;99.90
27413;DHT22;14871;52.702;5.230;2023-07-28T02:51:43;20.40;99.90
27413;DHT22;14871;52.702;5.230;2023-07-28T02:54:09;20.40;99.90
27413;DHT22;14871;52.702;5.230;2023-07-28T02:56:35;20.40;99.90
27413;DHT22;14871;52.702;5.230;2023-07-28T02:59:03;20.40;99.90
27413;DHT22;14871;52.702;5.230;2023-07-28T03:01:30;20.40;99.90
27413;DHT22;14871;52.702;5.230;2023-07-28T03:04:02;20.30;99.90
27413;DHT22;14871;52.702;5.230;2023-07-28T03:06:28;20.40;99.90
27413;DHT22;14871;52.702;5.230;2023-07-28T03:08:54;20.30;99.90
27413;DHT22;14871;52.702;5.230;2023-07-28T03:11:19;20.30;99.90
27413;DHT22;14871;52.702;5.230;2023-07-28T03:13:45;20.40;99.90
27413;DHT22;14871;52.702;5.230;2023-07-28T03:16:11;20.30;99.90
27413;DHT22;14871;52.702;5.230;2023-07-28T03:18:37;20.40;99.90
27413;DHT22;14871;52.702;5.230;2023-07-28T03:21:03;20.30;99.90
27413;DHT22;14871;52.702;5.230;2023-07-28T03:23:29;20.30;99.90
27413;DHT22;14871;52.702;5.230;2023-07-28T03:25:54;20.30;99.90
27413;DHT22;14871;52.702;5.230;2023-07-28T03:28:20;20.30;99.90
27413;DHT22;14871;52.702;5.230;2023-07-28T03:30:46;20.20;99.90
27413;DHT22;14871;52.702;5.230;2023-07-28T03:33:11;20.20;99.90
27413;DHT22;14871;52.702;5.230;2023-07-28T03:35:37;20.10;99.90
27413;DHT22;14871;52.702;5.230;2023-07-28T03:38:03;20.00;99.90
27413;DHT22;14871;52.702;5.230;2023-07-28T03:40:28;20.10;99.90
27413;DHT22;14871;52.702;5.230;2023-07-28T03:42:54;20.10;99.90
27413;DHT22;14871;52.702;5.230;2023-07-28T03:45:20;20.10;99.90
27413;DHT22;14871;52.702;5.230;2023-07-28T03:47:45;20.20;99.90
27413;DHT22;14871;52.702;5.230;2023-07-28T03:50:11;20.20;99.90
27413;DHT22;14871;52.702;5.230;2023-07-28T03:52:36;20.30;99.90
27413;DHT22;14871;52.702;5.230;2023-07-28T03:55:02;20.30;99.90
27413;DHT22;14871;52.702;5.230;2023-07-28T03:57:28;20.30;99.90
27413;DHT22;14871;52.702;5.230;2023-07-28T03:59:54;20.20;99.90
27413;DHT22;14871;52.702;5.230;2023-07-28T04:02:19;20.10;99.90
27413;DHT22;14871;52.702;5.230;2023-07-28T04:04:45;20.10;99.90
27413;DHT22;14871;52.702;5.230;2023-07-28T04:07:10;20.10;99.90
27413;DHT22;14871;52.702;5.230;2023-07-28T04:09:36;20.10;99.90
27413;DHT22;14871;52.702;5.230;2023-07-28T04:12:02;20.10;99.90
27413;DHT22;14871;52.702;5.230;2023-07-28T04:14:27;20.10;99.90
27413;DHT22;14871;52.702;5.230;2023-07-28T04:16:53;20.20;99.90
27413;DHT22;14871;52.702;5.230;2023-07-28T04:19:18;20.10;99.90
27413;DHT22;14871;52.702;5.230;2023-07-28T04:21:44;20.20;99.90
27413;DHT22;14871;52.702;5.230;2023-07-28T04:24:10;20.20;99.90
27413;DHT22;14871;52.702;5.230;2023-07-28T04:26:36;20.20;99.90
27413;DHT22;14871;52.702;5.230;2023-07-28T04:29:02;20.30;99.90
27413;DHT22;14871;52.702;5.230;2023-07-28T04:31:28;20.40;99.90
27413;DHT22;14871;52.702;5.230;2023-07-28T04:33:53;20.30;99.90
27413;DHT22;14871;52.702;5.230;2023-07-28T04:36:19;20.40;99.90
27413;DHT22;14871;52.702;5.230;2023-07-28T04:38:45;20.30;99.90
27413;DHT22;14871;52.702;5.230;2023-07-28T04:41:10;20.30;99.90
27413;DHT22;14871;52.702;5.230;2023-07-28T04:43:36;20.40;99.90
27413;DHT22;14871;52.702;5.230;2023-07-28T04:46:01;20.40;99.90
27413;DHT22;14871;52.702;5.230;2023-07-28T04:48:27;20.30;99.90
27413;DHT22;14871;52.702;5.230;2023-07-28T04:50:53;20.30;99.90
27413;DHT22;14871;52.702;5.230;2023-07-28T04:53:19;20.40;99.90
27413;DHT22;14871;52.702;5.230;2023-07-28T04:55:44;20.40;99.90
27413;DHT22;14871;52.702;5.230;2023-07-28T04:58:10;20.30;99.90
27413;DHT22;14871;52.702;5.230;2023-07-28T05:00:35;20.30;99.90
27413;DHT22;14871;52.702;5.230;2023-07-28T05:03:01;20.30;99.90
27413;DHT22;14871;52.702;5.230;2023-07-28T05:05:29;20.40;99.90
27413;DHT22;14871;52.702;5.230;2023-07-28T05:07:54;20.40;99.90
27413;DHT22;14871;52.702;5.230;2023-07-28T05:10:20;20.30;99.90
27413;DHT22;14871;52.702;5.230;2023-07-28T05:12:46;20.30;99.90
27413;DHT22;14871;52.702;5.230;2023-07-28T05:15:14;20.40;99.90
27413;DHT22;14871;52.702;5.230;2023-07-28T05:17:40;20.50;99.90
27413;DHT22;14871;52.702;5.230;2023-07-28T05:20:06;20.30;99.90
27413;DHT22;14871;52.702;5.230;2023-07-28T05:22:32;20.40;99.90
27413;DHT22;14871;52.702;5.230;2023-07-28T05:24:57;20.60;99.90
27413;DHT22;14871;52.702;5.230;2023-07-28T05:27:23;20.60;99.90
27413;DHT22;14871;52.702;5.230;2023-07-28T05:29:48;20.50;99.90
27413;DHT22;14871;52.702;5.230;2023-07-28T05:32:14;20.60;99.90
27413;DHT22;14871;52.702;5.230;2023-07-28T05:34:43;20.50;99.90
27413;DHT22;14871;52.702;5.230;2023-07-28T05:37:09;20.50;99.90
27413;DHT22;14871;52.702;5.230;2023-07-28T05:39:35;20.70;99.90
27413;DHT22;14871;52.702;5.230;2023-07-28T05:42:01;20.60;99.90
27413;DHT22;14871;52.702;5.230;2023-07-28T05:44:26;20.70;99.90
27413;DHT22;14871;52.702;5.230;2023-07-28T05:46:53;20.80;99.90
27413;DHT22;14871;52.702;5.230;2023-07-28T05:49:18;20.90;99.90
27413;DHT22;14871;52.702;5.230;2023-07-28T05:51:44;20.90;99.90
27413;DHT22;14871;52.702;5.230;2023-07-28T05:54:09;21.00;99.90
27413;DHT22;14871;52.702;5.230;2023-07-28T05:56:35;20.90;99.90
27413;DHT22;14871;52.702;5.230;2023-07-28T05:59:00;20.90;99.90
27413;DHT22;14871;52.702;5.230;2023-07-28T06:01:26;20.90;99.90
27413;DHT22;14871;52.702;5.230;2023-07-28T06:03:52;20.80;99.90
27413;DHT22;14871;52.702;5.230;2023-07-28T06:06:21;21.00;99.90
27413;DHT22;14871;52.702;5.230;2023-07-28T06:08:47;20.90;99.90
27413;DHT22;14871;52.702;5.230;2023-07-28T06:11:13;21.00;99.90
27413;DHT22;14871;52.702;5.230;2023-07-28T06:13:38;21.10;99.90
27413;DHT22;14871;52.702;5.230;2023-07-28T06:16:04;21.20;99.90
27413;DHT22;14871;52.702;5.230;2023-07-28T06:18:29;21.10;99.90
27413;DHT22;14871;52.702;5.230;2023-07-28T06:20:55;21.20;99.90
27413;DHT22;14871;52.702;5.230;2023-07-28T06:23:21;21.20;99.90
27413;DHT22;14871;52.702;5.230;2023-07-28T06:25:46;21.30;99.90
27413;DHT22;14871;52.702;5.230;2023-07-28T06:28:12;21.30;99.90
27413;DHT22;14871;52.702;5.230;2023-07-28T06:30:38;21.30;99.90
27413;DHT22;14871;52.702;5.230;2023-07-28T06:33:07;21.20;99.90
27413;DHT22;14871;52.702;5.230;2023-07-28T06:35:33;21.10;99.90
27413;DHT22;14871;52.702;5.230;2023-07-28T06:38:00;21.30;99.90
27413;DHT22;14871;52.702;5.230;2023-07-28T06:40:25;21.50;99.90
27413;DHT22;14871;52.702;5.230;2023-07-28T06:42:51;21.50;99.90
27413;DHT22;14871;52.702;5.230;2023-07-28T06:45:17;21.40;99.90
27413;DHT22;14871;52.702;5.230;2023-07-28T06:47:42;21.40;99.90
27413;DHT22;14871;52.702;5.230;2023-07-28T06:50:08;21.60;99.90
27413;DHT22;14871;52.702;5.230;2023-07-28T06:52:34;21.60;99.90
27413;DHT22;14871;52.702;5.230;2023-07-28T06:55:00;21.70;99.90
27413;DHT22;14871;52.702;5.230;2023-07-28T06:57:25;21.90;99.90
27413;DHT22;14871;52.702;5.230;2023-07-28T06:59:51;21.90;99.90
27413;DHT22;14871;52.702;5.230;2023-07-28T07:02:16;22.00;99.90
27413;DHT22;14871;52.702;5.230;2023-07-28T07:04:42;22.00;99.90
27413;DHT22;14871;52.702;5.230;2023-07-28T07:07:08;22.00;99.90
27413;DHT22;14871;52.702;5.230;2023-07-28T07:09:34;22.10;99.90
27413;DHT22;14871;52.702;5.230;2023-07-28T07:12:00;22.10;99.90
27413;DHT22;14871;52.702;5.230;2023-07-28T07:14:25;22.10;99.90
27413;DHT22;14871;52.702;5.230;2023-07-28T07:16:51;22.30;99.90
27413;DHT22;14871;52.702;5.230;2023-07-28T07:19:17;22.30;99.90
27413;DHT22;14871;52.702;5.230;2023-07-28T07:21:42;22.30;99.90
27413;DHT22;14871;52.702;5.230;2023-07-28T07:24:10;22.40;99.90
27413;DHT22;14871;52.702;5.230;2023-07-28T07:26:39;22.40;99.90
27413;DHT22;14871;52.702;5.230;2023-07-28T07:29:05;22.60;99.90
27413;DHT22;14871;52.702;5.230;2023-07-28T07:31:30;22.60;99.90
27413;DHT22;14871;52.702;5.230;2023-07-28T07:33:56;22.60;99.90
27413;DHT22;14871;52.702;5.230;2023-07-28T07:36:21;22.60;99.90
27413;DHT22;14871;52.702;5.230;2023-07-28T07:38:47;22.80;99.90
27413;DHT22;14871;52.702;5.230;2023-07-28T07:41:15;22.70;99.90
27413;DHT22;14871;52.702;5.230;2023-07-28T07:43:47;22.60;99.90
27413;DHT22;14871;52.702;5.230;2023-07-28T07:46:14;22.80;99.90
27413;DHT22;14871;52.702;5.230;2023-07-28T07:48:40;22.90;99.90
27413;DHT22;14871;52.702;5.230;2023-07-28T07:51:07;22.90;99.90
27413;DHT22;14871;52.702;5.230;2023-07-28T07:53:33;23.10;99.90
27413;DHT22;14871;52.702;5.230;2023-07-28T07:55:58;23.20;99.90
27413;DHT22;14871;52.702;5.230;2023-07-28T07:58:24;23.00;99.90
27413;DHT22;14871;52.702;5.230;2023-07-28T08:00:49;23.00;99.90
27413;DHT22;14871;52.702;5.230;2023-07-28T08:03:15;22.90;99.90
27413;DHT22;14871;52.702;5.230;2023-07-28T08:05:41;22.80;99.90
27413;DHT22;14871;52.702;5.230;2023-07-28T08:08:07;22.90;99.90
27413;DHT22;14871;52.702;5.230;2023-07-28T08:10:33;22.90;99.90
27413;DHT22;14871;52.702;5.230;2023-07-28T08:12:59;22.90;99.90
27413;DHT22;14871;52.702;5.230;2023-07-28T08:15:25;22.90;99.90
27413;DHT22;14871;52.702;5.230;2023-07-28T08:17:51;22.90;99.90
27413;DHT22;14871;52.702;5.230;2023-07-28T08:20:17;22.90;99.90
27413;DHT22;14871;52.702;5.230;2023-07-28T08:22:43;23.10;99.90
27413;DHT22;14871;52.702;5.230;2023-07-28T08:25:09;23.30;99.90
27413;DHT22;14871;52.702;5.230;2023-07-28T08:27:34;23.10;99.90
27413;DHT22;14871;52.702;5.230;2023-07-28T08:30:00;23.10;99.90
27413;DHT22;14871;52.702;5.230;2023-07-28T08:32:26;23.20;99.90
27413;DHT22;14871;52.702;5.230;2023-07-28T08:34:51;23.20;99.90
27413;DHT22;14871;52.702;5.230;2023-07-28T08:37:17;23.30;99.90
27413;DHT22;14871;52.702;5.230;2023-07-28T08:39:42;23.40;99.90
27413;DHT22;14871;52.702;5.230;2023-07-28T08:42:08;23.70;99.90
27413;DHT22;14871;52.702;5.230;2023-07-28T08:44:34;23.70;99.90
27413;DHT22;14871;52.702;5.230;2023-07-28T08:47:01;23.60;99.90
27413;DHT22;14871;52.702;5.230;2023-07-28T08:49:27;23.60;99.90
27413;DHT22;14871;52.702;5.230;2023-07-28T08:51:58;23.80;99.90
27413;DHT22;14871;52.702;5.230;2023-07-28T08:54:24;24.10;99.90
27413;DHT22;14871;52.702;5.230;2023-07-28T08:56:49;24.00;99.90
27413;DHT22;14871;52.702;5.230;2023-07-28T08:59:26;23.90;99.90
27413;DHT22;14871;52.702;5.230;2023-07-28T09:01:57;23.80;99.90
27413;DHT22;14871;52.702;5.230;2023-07-28T09:04:26;23.70;99.90
27413;DHT22;14871;52.702;5.230;2023-07-28T09:06:52;23.80;99.90
27413;DHT22;14871;52.702;5.230;2023-07-28T09:09:20;23.80;99.90
27413;DHT22;14871;52.702;5.230;2023-07-28T09:11:49;24.00;99.90
27413;DHT22;14871;52.702;5.230;2023-07-28T09:14:17;24.20;99.90
27413;DHT22;14871;52.702;5.230;2023-07-28T09:16:44;24.20;99.90
27413;DHT22;14871;52.702;5.230;2023-07-28T09:19:10;24.20;99.90
27413;DHT22;14871;52.702;5.230;2023-07-28T09:21:38;24.50;99.90
27413;DHT22;14871;52.702;5.230;2023-07-28T09:24:05;24.20;99.90
27413;DHT22;14871;52.702;5.230;2023-07-28T09:26:41;24.20;99.90
27413;DHT22;14871;52.702;5.230;2023-07-28T09:29:22;24.00;99.90
27413;DHT22;14871;52.702;5.230;2023-07-28T09:31:50;23.90;99.90
27413;DHT22;14871;52.702;5.230;2023-07-28T09:34:26;24.00;99.90
27413;DHT22;14871;52.702;5.230;2023-07-28T09:36:59;23.70;99.90
27413;DHT22;14871;52.702;5.230;2023-07-28T09:39:25;23.70;99.90
27413;DHT22;14871;52.702;5.230;2023-07-28T09:41:51;23.60;99.90
27413;DHT22;14871;52.702;5.230;2023-07-28T09:44:17;23.50;99.90
27413;DHT22;14871;52.702;5.230;2023-07-28T09:46:51;23.50;99.90
27413;DHT22;14871;52.702;5.230;2023-07-28T09:49:41;23.40;99.90
27413;DHT22;14871;52.702;5.230;2023-07-28T09:52:10;23.50;99.90
27413;DHT22;14871;52.702;5.230;2023-07-28T09:54:41;23.50;99.90
27413;DHT22;14871;52.702;5.230;2023-07-28T09:57:20;23.50;99.90
27413;DHT22;14871;52.702;5.230;2023-07-28T09:59:47;23.30;99.90
27413;DHT22;14871;52.702;5.230;2023-07-28T10:02:13;23.30;99.90
27413;DHT22;14871;52.702;5.230;2023-07-28T10:04:39;23.40;99.90
27413;DHT22;14871;52.702;5.230;2023-07-28T10:07:05;23.70;99.90
27413;DHT22;14871;52.702;5.230;2023-07-28T10:09:33;23.70;99.90
27413;DHT22;14871;52.702;5.230;2023-07-28T10:11:59;24.30;99.90
27413;DHT22;14871;52.702;5.230;2023-07-28T10:16:59;24.50;99.90
27413;DHT22;14871;52.702;5.230;2023-07-28T10:19:28;24.70;99.90
27413;DHT22;14871;52.702;5.230;2023-07-28T10:22:10;24.60;99.90
27413;DHT22;14871;52.702;5.230;2023-07-28T10:24:56;24.50;99.90
27413;DHT22;14871;52.702;5.230;2023-07-28T10:30:01;24.40;99.90
27413;DHT22;14871;52.702;5.230;2023-07-28T10:32:37;24.10;99.90
27413;DHT22;14871;52.702;5.230;2023-07-28T10:37:39;24.20;99.90
27413;DHT22;14871;52.702;5.230;2023-07-28T10:40:30;24.30;99.90
27413;DHT22;14871;52.702;5.230;2023-07-28T10:42:57;24.50;99.90
27413;DHT22;14871;52.702;5.230;2023-07-28T10:45:24;24.30;99.90
27413;DHT22;14871;52.702;5.230;2023-07-28T10:47:51;24.30;99.90
27413;DHT22;14871;52.702;5.230;2023-07-28T10:50:18;24.40;99.90
27413;DHT22;14871;52.702;5.230;2023-07-28T10:52:45;24.30;99.90
27413;DHT22;14871;52.702;5.230;2023-07-28T10:55:18;24.40;99.90
27413;DHT22;14871;52.702;5.230;2023-07-28T10:57:44;24.40;99.90
27413;DHT22;14871;52.702;5.230;2023-07-28T11:00:11;24.40;99.90
27413;DHT22;14871;52.702;5.230;2023-07-28T11:02:40;24.30;99.90
27413;DHT22;14871;52.702;5.230;2023-07-28T11:05:10;24.20;99.90
27413;DHT22;14871;52.702;5.230;2023-07-28T11:07:41;24.10;99.90
27413;DHT22;14871;52.702;5.230;2023-07-28T11:10:08;23.90;99.90
27413;DHT22;14871;52.702;5.230;2023-07-28T11:12:34;23.90;99.90
27413;DHT22;14871;52.702;5.230;2023-07-28T11:15:00;24.00;99.90
27413;DHT22;14871;52.702;5.230;2023-07-28T11:17:26;24.00;99.90
27413;DHT22;14871;52.702;5.230;2023-07-28T11:19:52;23.90;99.90
27413;DHT22;14871;52.702;5.230;2023-07-28T11:22:18;23.60;99.90
27413;DHT22;14871;52.702;5.230;2023-07-28T11:24:44;23.80;99.90
27413;DHT22;14871;52.702;5.230;2023-07-28T11:27:11;23.90;99.90
27413;DHT22;14871;52.702;5.230;2023-07-28T11:29:37;23.90;99.90
27413;DHT22;14871;52.702;5.230;2023-07-28T11:32:03;23.70;99.90
27413;DHT22;14871;52.702;5.230;2023-07-28T11:34:35;23.80;99.90
27413;DHT22;14871;52.702;5.230;2023-07-28T11:37:01;23.70;99.90
27413;DHT22;14871;52.702;5.230;2023-07-28T11:39:29;23.80;99.90
27413;DHT22;14871;52.702;5.230;2023-07-28T11:41:55;23.70;99.90
27413;DHT22;14871;52.702;5.230;2023-07-28T11:44:21;23.90;99.90
27413;DHT22;14871;52.702;5.230;2023-07-28T11:46:46;23.80;99.90
27413;DHT22;14871;52.702;5.230;2023-07-28T11:49:16;24.00;99.90
27413;DHT22;14871;52.702;5.230;2023-07-28T11:51:46;23.80;99.90
27413;DHT22;14871;52.702;5.230;2023-07-28T11:54:13;23.80;99.90
27413;DHT22;14871;52.702;5.230;2023-07-28T11:56:41;23.70;99.90
27413;DHT22;14871;52.702;5.230;2023-07-28T11:59:07;23.60;99.90
27413;DHT22;14871;52.702;5.230;2023-07-28T12:01:33;23.50;99.90
27413;DHT22;14871;52.702;5.230;2023-07-28T12:03:58;23.60;99.90
27413;DHT22;14871;52.702;5.230;2023-07-28T12:06:26;23.60;99.90
27413;DHT22;14871;52.702;5.230;2023-07-28T12:08:51;23.50;99.90
27413;DHT22;14871;52.702;5.230;2023-07-28T12:11:17;23.70;99.90
27413;DHT22;14871;52.702;5.230;2023-07-28T12:13:52;23.60;99.90
27413;DHT22;14871;52.702;5.230;2023-07-28T12:16:53;23.60;99.90
27413;DHT22;14871;52.702;5.230;2023-07-28T12:19:19;23.60;99.90
27413;DHT22;14871;52.702;5.230;2023-07-28T12:21:44;23.70;99.90
27413;DHT22;14871;52.702;5.230;2023-07-28T12:24:10;23.90;99.90
27413;DHT22;14871;52.702;5.230;2023-07-28T12:26:35;24.00;99.90
27413;DHT22;14871;52.702;5.230;2023-07-28T12:29:01;24.00;99.90
27413;DHT22;14871;52.702;5.230;2023-07-28T12:31:27;24.00;99.90
27413;DHT22;14871;52.702;5.230;2023-07-28T12:33:53;23.80;99.90
27413;DHT22;14871;52.702;5.230;2023-07-28T12:36:18;24.00;99.90
27413;DHT22;14871;52.702;5.230;2023-07-28T12:38:44;24.10;99.90
27413;DHT22;14871;52.702;5.230;2023-07-28T12:41:09;24.20;99.90
27413;DHT22;14871;52.702;5.230;2023-07-28T12:43:35;24.10;99.90
27413;DHT22;14871;52.702;5.230;2023-07-28T12:46:01;24.10;99.90
27413;DHT22;14871;52.702;5.230;2023-07-28T12:48:27;24.10;99.90
27413;DHT22;14871;52.702;5.230;2023-07-28T12:50:53;24.40;99.90
27413;DHT22;14871;52.702;5.230;2023-07-28T12:53:18;24.30;99.90
27413;DHT22;14871;52.702;5.230;2023-07-28T12:55:44;24.50;99.90
27413;DHT22;14871;52.702;5.230;2023-07-28T12:58:10;24.60;99.90
27413;DHT22;14871;52.702;5.230;2023-07-28T13:00:35;24.80;99.90
27413;DHT22;14871;52.702;5.230;2023-07-28T13:03:01;24.80;99.90
27413;DHT22;14871;52.702;5.230;2023-07-28T13:05:26;24.90;99.90
27413;DHT22;14871;52.702;5.230;2023-07-28T13:07:52;24.90;99.90
27413;DHT22;14871;52.702;5.230;2023-07-28T13:10:18;24.70;99.90
27413;DHT22;14871;52.702;5.230;2023-07-28T13:12:43;24.70;99.90
27413;DHT22;14871;52.702;5.230;2023-07-28T13:15:09;24.90;99.90
27413;DHT22;14871;52.702;5.230;2023-07-28T13:17:35;24.90;99.90
27413;DHT22;14871;52.702;5.230;2023-07-28T13:20:00;24.90;99.90
27413;DHT22;14871;52.702;5.230;2023-07-28T13:22:26;24.80;99.90
27413;DHT22;14871;52.702;5.230;2023-07-28T13:24:52;24.80;99.90
27413;DHT22;14871;52.702;5.230;2023-07-28T13:27:19;24.70;99.90
27413;DHT22;14871;52.702;5.230;2023-07-28T13:29:44;24.80;99.90
27413;DHT22;14871;52.702;5.230;2023-07-28T13:32:18;24.80;99.90
27413;DHT22;14871;52.702;5.230;2023-07-28T13:34:44;24.90;99.90
27413;DHT22;14871;52.702;5.230;2023-07-28T13:37:10;24.80;99.90
27413;DHT22;14871;52.702;5.230;2023-07-28T13:39:36;24.80;99.90
27413;DHT22;14871;52.702;5.230;2023-07-28T13:42:01;25.00;99.90
27413;DHT22;14871;52.702;5.230;2023-07-28T13:44:27;25.00;99.90
27413;DHT22;14871;52.702;5.230;2023-07-28T13:46:52;25.00;99.90
27413;DHT22;14871;52.702;5.230;2023-07-28T13:49:18;25.10;99.90
27413;DHT22;14871;52.702;5.230;2023-07-28T13:51:44;24.80;99.90
27413;DHT22;14871;52.702;5.230;2023-07-28T13:54:10;25.20;99.90
27413;DHT22;14871;52.702;5.230;2023-07-28T13:56:36;25.30;99.90
27413;DHT22;14871;52.702;5.230;2023-07-28T13:59:02;25.10;99.90
27413;DHT22;14871;52.702;5.230;2023-07-28T14:01:27;25.10;99.90
27413;DHT22;14871;52.702;5.230;2023-07-28T14:03:53;24.90;99.90
27413;DHT22;14871;52.702;5.230;2023-07-28T14:06:19;25.10;99.90
27413;DHT22;14871;52.702;5.230;2023-07-28T14:08:44;25.10;99.90
27413;DHT22;14871;52.702;5.230;2023-07-28T14:11:10;25.00;99.90
27413;DHT22;14871;52.702;5.230;2023-07-28T14:13:36;25.10;99.90
27413;DHT22;14871;52.702;5.230;2023-07-28T14:16:01;25.10;99.90
27413;DHT22;14871;52.702;5.230;2023-07-28T14:18:28;24.90;99.90
27413;DHT22;14871;52.702;5.230;2023-07-28T14:20:54;25.10;99.90
27413;DHT22;14871;52.702;5.230;2023-07-28T14:23:27;25.30;99.90
27413;DHT22;14871;52.702;5.230;2023-07-28T14:25:53;25.30;99.90
27413;DHT22;14871;52.702;5.230;2023-07-28T14:28:20;25.20;99.90
27413;DHT22;14871;52.702;5.230;2023-07-28T14:30:46;25.40;99.90
27413;DHT22;14871;52.702;5.230;2023-07-28T14:33:15;25.60;99.90
27413;DHT22;14871;52.702;5.230;2023-07-28T14:35:43;25.70;99.90
27413;DHT22;14871;52.702;5.230;2023-07-28T14:38:09;25.60;99.90
27413;DHT22;14871;52.702;5.230;2023-07-28T14:40:36;25.60;99.90
27413;DHT22;14871;52.702;5.230;2023-07-28T14:43:02;25.60;99.90
27413;DHT22;14871;52.702;5.230;2023-07-28T14:45:28;25.60;99.90
27413;DHT22;14871;52.702;5.230;2023-07-28T14:47:53;25.50;99.90
27413;DHT22;14871;52.702;5.230;2023-07-28T14:50:19;25.90;99.90
27413;DHT22;14871;52.702;5.230;2023-07-28T14:52:45;25.90;99.90
27413;DHT22;14871;52.702;5.230;2023-07-28T14:55:10;25.90;99.90
27413;DHT22;14871;52.702;5.230;2023-07-28T14:57:36;26.00;99.90
27413;DHT22;14871;52.702;5.230;2023-07-28T15:00:02;26.00;99.90
27413;DHT22;14871;52.702;5.230;2023-07-28T15:02:28;25.90;99.90
27413;DHT22;14871;52.702;5.230;2023-07-28T15:04:54;25.90;99.90
27413;DHT22;14871;52.702;5.230;2023-07-28T15:07:19;25.80;99.90
27413;DHT22;14871;52.702;5.230;2023-07-28T15:09:48;25.60;99.90
27413;DHT22;14871;52.702;5.230;2023-07-28T15:12:13;25.80;99.90
27413;DHT22;14871;52.702;5.230;2023-07-28T15:14:39;25.90;99.90
27413;DHT22;14871;52.702;5.230;2023-07-28T15:17:05;25.90;99.90
27413;DHT22;14871;52.702;5.230;2023-07-28T15:19:31;25.80;99.90
27413;DHT22;14871;52.702;5.230;2023-07-28T15:21:56;25.80;99.90
27413;DHT22;14871;52.702;5.230;2023-07-28T15:24:22;25.60;99.90
27413;DHT22;14871;52.702;5.230;2023-07-28T15:26:48;25.60;99.90
27413;DHT22;14871;52.702;5.230;2023-07-28T15:29:15;25.60;99.90
27413;DHT22;14871;52.702;5.230;2023-07-28T15:31:41;25.80;99.90
27413;DHT22;14871;52.702;5.230;2023-07-28T15:34:07;25.70;99.90
27413;DHT22;14871;52.702;5.230;2023-07-28T15:36:32;25.70;99.90
27413;DHT22;14871;52.702;5.230;2023-07-28T15:38:58;25.60;99.90